Time;durP1;ratioP1;P1;durP2;ratioP2;P2;SDS_P1;SDS_P2;PMS_P1;PMS_P2;Temp;Humidity;BMP_temperature;BMP_pressure;BME280_temperature;BME280_humidity;BME280_pressure;Samples;Min_cycle;Max_cycle;Signal;HPM_P1;HPM_P2
2022/10/10 00:03:00;;;;;;;12.95;11.85;;;;;;;;;;10148209;28;20053;-67
2022/10/10 00:07:57;;;;;;;14.10;11.85;;;;;;;;;;10154018;28;20058;-68
2022/10/10 00:12:53;;;;;;;13.40;12.23;;;;;;;;;;10158065;28;20046;-68
2022/10/10 00:17:49;;;;;;;16.98;12.30;;;;;;;;;;10151141;28;20516;-68
2022/10/10 00:22:46;;;;;;;13.90;12.70;;;;;;;;;;10160751;28;20068;-68
2022/10/10 00:27:43;;;;;;;13.23;11.90;;;;;;;;;;10155303;28;20053;-67
2022/10/10 00:32:39;;;;;;;12.82;11.57;;;;;;;;;;10158407;28;20461;-66
2022/10/10 00:37:35;;;;;;;18.90;13.13;;;;;;;;;;10155301;28;20050;-67
2022/10/10 00:42:31;;;;;;;12.90;12.00;;;;;;;;;;10153433;28;20061;-67
2022/10/10 00:47:28;;;;;;;13.23;11.88;;;;;;;;;;10157456;28;20508;-68
2022/10/10 00:52:24;;;;;;;12.88;11.82;;;;;;;;;;10154238;28;20045;-68
2022/10/10 00:57:20;;;;;;;15.38;12.73;;;;;;;;;;10155063;28;20062;-67
2022/10/10 01:02:16;;;;;;;13.05;11.30;;;;;;;;;;10154211;28;20078;-67
2022/10/10 01:07:23;;;;;;;12.75;11.70;;;;;;;;;;11231672;22;20553;-69
2022/10/10 01:12:23;;;;;;;13.20;12.13;;;;;;;;;;10142148;28;20054;-69
2022/10/10 01:17:38;;;;;;;13.15;11.95;;;;;;;;;;10158055;28;20049;-69
2022/10/10 01:22:54;;;;;;;12.80;11.70;;;;;;;;;;10177152;28;20050;-69
2022/10/10 01:27:51;;;;;;;12.43;10.95;;;;;;;;;;10175930;28;20060;-69
2022/10/10 01:32:51;;;;;;;11.98;10.80;;;;;;;;;;10173171;28;20053;-69
2022/10/10 01:38:04;;;;;;;12.07;11.05;;;;;;;;;;10176989;28;20731;-69
2022/10/10 01:43:02;;;;;;;12.38;11.27;;;;;;;;;;10176469;28;20393;-69
2022/10/10 01:48:00;;;;;;;12.05;10.95;;;;;;;;;;10174434;28;20053;-69
2022/10/10 01:53:16;;;;;;;12.25;11.32;;;;;;;;;;10172106;28;20525;-69
2022/10/10 01:58:24;;;;;;;11.43;10.35;;;;;;;;;;10162488;28;20129;-69
2022/10/10 02:03:26;;;;;;;12.30;11.23;;;;;;;;;;10166459;28;20057;-69
2022/10/10 02:08:36;;;;;;;12.45;11.05;;;;;;;;;;10175667;28;20053;-69
2022/10/10 02:13:53;;;;;;;13.10;11.90;;;;;;;;;;10173626;28;20049;-68
2022/10/10 02:18:50;;;;;;;12.30;11.23;;;;;;;;;;10173218;28;20056;-69
2022/10/10 02:23:49;;;;;;;12.63;11.15;;;;;;;;;;10175183;28;20065;-68
2022/10/10 02:28:49;;;;;;;13.13;11.77;;;;;;;;;;10173081;28;20042;-69
2022/10/10 02:33:49;;;;;;;12.10;10.98;;;;;;;;;;10168176;28;20041;-69
2022/10/10 02:38:46;;;;;;;12.05;10.90;;;;;;;;;;10173351;28;20044;-69
2022/10/10 02:43:43;;;;;;;14.43;11.77;;;;;;;;;;10174201;28;20041;-68
2022/10/10 02:48:39;;;;;;;14.23;10.85;;;;;;;;;;10174208;28;20052;-68
2022/10/10 02:53:36;;;;;;;12.75;11.65;;;;;;;;;;10168969;28;20054;-68
2022/10/10 02:58:33;;;;;;;12.40;11.35;;;;;;;;;;10173343;28;20042;-68
2022/10/10 03:03:29;;;;;;;12.98;11.65;;;;;;;;;;10176746;28;20045;-68
2022/10/10 03:08:25;;;;;;;12.85;11.88;;;;;;;;;;10165700;28;20049;-68
2022/10/10 03:13:21;;;;;;;12.40;11.00;;;;;;;;;;10175264;28;20050;-68
2022/10/10 03:18:18;;;;;;;12.55;11.27;;;;;;;;;;10173748;28;20503;-69
2022/10/10 03:23:14;;;;;;;14.27;12.60;;;;;;;;;;10155632;28;20565;-69
2022/10/10 03:28:17;;;;;;;13.35;12.25;;;;;;;;;;10180481;28;20077;-70
2022/10/10 03:33:14;;;;;;;14.05;12.60;;;;;;;;;;10159493;28;20671;-69
2022/10/10 03:38:12;;;;;;;16.38;12.82;;;;;;;;;;10168836;28;20895;-69
2022/10/10 03:43:09;;;;;;;14.07;12.60;;;;;;;;;;10173521;28;20049;-69
2022/10/10 03:48:05;;;;;;;14.18;12.38;;;;;;;;;;10182328;28;20526;-68
2022/10/10 03:53:03;;;;;;;14.48;13.07;;;;;;;;;;10193096;28;20613;-68
2022/10/10 03:58:00;;;;;;;14.15;13.02;;;;;;;;;;10184440;28;20053;-68
2022/10/10 04:02:56;;;;;;;14.90;13.80;;;;;;;;;;10185181;28;20056;-68
2022/10/10 04:07:52;;;;;;;14.73;13.52;;;;;;;;;;10176119;28;20649;-68
2022/10/10 04:12:49;;;;;;;15.38;14.18;;;;;;;;;;10173212;28;20048;-68
2022/10/10 04:17:46;;;;;;;16.13;14.82;;;;;;;;;;10175744;28;20077;-67
2022/10/10 04:22:43;;;;;;;16.25;14.88;;;;;;;;;;10178488;28;20053;-69
2022/10/10 04:27:39;;;;;;;16.17;14.82;;;;;;;;;;10181181;28;20058;-69
2022/10/10 04:32:36;;;;;;;16.27;14.77;;;;;;;;;;10186648;28;20046;-69
2022/10/10 04:37:33;;;;;;;17.83;16.02;;;;;;;;;;10180687;28;20069;-69
2022/10/10 04:42:29;;;;;;;17.38;16.08;;;;;;;;;;10178917;28;20053;-69
2022/10/10 04:47:25;;;;;;;18.83;17.48;;;;;;;;;;10179833;28;20583;-69
2022/10/10 04:52:21;;;;;;;19.20;17.80;;;;;;;;;;10176386;28;20046;-69
2022/10/10 04:57:18;;;;;;;19.75;18.27;;;;;;;;;;10178510;28;20054;-69
2022/10/10 05:02:14;;;;;;;19.52;17.88;;;;;;;;;;10182699;28;20050;-69
2022/10/10 05:07:10;;;;;;;20.45;18.65;;;;;;;;;;10183708;28;20038;-68
2022/10/10 05:12:07;;;;;;;20.08;18.45;;;;;;;;;;10176524;28;20064;-69
2022/10/10 05:17:03;;;;;;;20.83;18.90;;;;;;;;;;10181669;28;20056;-69
2022/10/10 05:21:59;;;;;;;20.65;19.13;;;;;;;;;;10179055;28;20691;-69
2022/10/10 05:26:55;;;;;;;20.77;19.35;;;;;;;;;;10178910;28;20053;-69
2022/10/10 05:31:52;;;;;;;21.27;19.48;;;;;;;;;;10182493;28;20050;-69
2022/10/10 05:36:48;;;;;;;20.23;18.42;;;;;;;;;;10173111;28;20049;-69
2022/10/10 05:41:44;;;;;;;20.80;19.20;;;;;;;;;;10172126;28;20046;-68
2022/10/10 05:46:41;;;;;;;19.98;18.50;;;;;;;;;;10177747;28;20064;-69
2022/10/10 05:51:37;;;;;;;20.83;19.23;;;;;;;;;;10173791;28;20046;-70
2022/10/10 05:56:33;;;;;;;22.42;20.58;;;;;;;;;;10172615;28;20159;-71
2022/10/10 06:01:30;;;;;;;22.90;20.90;;;;;;;;;;10173090;28;20592;-71
2022/10/10 06:06:26;;;;;;;21.40;19.60;;;;;;;;;;10169828;28;20053;-71
2022/10/10 06:11:24;;;;;;;23.67;21.83;;;;;;;;;;10168748;28;20076;-70
2022/10/10 06:16:21;;;;;;;22.88;21.02;;;;;;;;;;10168449;28;20054;-71
2022/10/10 06:21:17;;;;;;;21.85;19.92;;;;;;;;;;10180052;28;21402;-71
2022/10/10 06:26:14;;;;;;;21.58;19.70;;;;;;;;;;10181547;28;20423;-70
2022/10/10 06:31:11;;;;;;;22.25;20.42;;;;;;;;;;10180151;28;20043;-71
2022/10/10 06:36:07;;;;;;;20.73;19.23;;;;;;;;;;10175847;28;20060;-70
2022/10/10 06:41:04;;;;;;;20.80;19.15;;;;;;;;;;10172291;28;20056;-71
2022/10/10 06:46:01;;;;;;;18.65;17.00;;;;;;;;;;10171288;28;20046;-71
2022/10/10 06:50:58;;;;;;;17.52;15.93;;;;;;;;;;10178669;28;20046;-70
2022/10/10 06:55:55;;;;;;;17.92;16.52;;;;;;;;;;10179773;28;20050;-70
2022/10/10 07:01:01;;;;;;;17.92;16.55;;;;;;;;;;10179369;28;20053;-71
2022/10/10 07:05:59;;;;;;;16.40;15.10;;;;;;;;;;10178859;28;20056;-70
2022/10/10 07:10:55;;;;;;;17.63;16.13;;;;;;;;;;10178473;28;20137;-70
2022/10/10 07:15:52;;;;;;;16.23;14.98;;;;;;;;;;10177591;28;20141;-70
2022/10/10 07:20:48;;;;;;;16.52;14.82;;;;;;;;;;10180950;28;20081;-70
2022/10/10 07:25:45;;;;;;;17.05;15.52;;;;;;;;;;10175313;28;20050;-71
2022/10/10 07:30:42;;;;;;;15.45;14.10;;;;;;;;;;10176938;28;20272;-70
2022/10/10 07:35:39;;;;;;;18.60;16.65;;;;;;;;;;10173238;28;20065;-71
2022/10/10 07:40:37;;;;;;;15.80;14.30;;;;;;;;;;10179108;28;20096;-71
2022/10/10 07:45:34;;;;;;;16.02;14.48;;;;;;;;;;10178613;28;20046;-70
2022/10/10 07:50:30;;;;;;;15.95;14.65;;;;;;;;;;10173824;28;20045;-71
2022/10/10 07:55:27;;;;;;;15.35;14.07;;;;;;;;;;10172883;28;20050;-71
2022/10/10 08:00:23;;;;;;;15.40;13.88;;;;;;;;;;10170982;28;20045;-72
2022/10/10 08:05:19;;;;;;;16.23;14.43;;;;;;;;;;10172268;28;20053;-71
2022/10/10 08:10:16;;;;;;;13.82;12.38;;;;;;;;;;10179575;28;20477;-71
2022/10/10 08:15:12;;;;;;;14.15;12.73;;;;;;;;;;10166455;28;20054;-71
2022/10/10 08:20:09;;;;;;;14.20;12.95;;;;;;;;;;10174587;28;20054;-71
2022/10/10 08:25:05;;;;;;;14.55;13.23;;;;;;;;;;10177947;28;20149;-71
2022/10/10 08:30:02;;;;;;;13.13;11.68;;;;;;;;;;10184436;28;20431;-71
2022/10/10 08:34:58;;;;;;;13.50;12.18;;;;;;;;;;10179654;28;20065;-71
2022/10/10 08:39:55;;;;;;;13.13;12.02;;;;;;;;;;10185564;28;20034;-71
2022/10/10 08:44:54;;;;;;;13.80;11.88;;;;;;;;;;10185672;28;20499;-71
2022/10/10 08:50:13;;;;;;;12.52;10.90;;;;;;;;;;10185411;28;20042;-71
2022/10/10 08:55:18;;;;;;;11.18;10.02;;;;;;;;;;10180053;28;20038;-71
2022/10/10 09:00:16;;;;;;;17.23;10.20;;;;;;;;;;10182605;28;20072;-72
2022/10/10 09:05:14;;;;;;;11.10;10.00;;;;;;;;;;10184142;28;20533;-71
2022/10/10 09:10:29;;;;;;;12.20;10.13;;;;;;;;;;10184800;28;20584;-70
2022/10/10 09:15:34;;;;;;;9.80;8.80;;;;;;;;;;10181505;28;20096;-71
2022/10/10 09:20:42;;;;;;;10.20;9.20;;;;;;;;;;10183309;28;20447;-72
2022/10/10 09:25:42;;;;;;;13.18;9.88;;;;;;;;;;10180819;28;20038;-71
2022/10/10 09:30:41;;;;;;;14.35;9.48;;;;;;;;;;10182941;28;20041;-71
2022/10/10 09:35:39;;;;;;;10.00;9.10;;;;;;;;;;10181075;28;20041;-72
2022/10/10 09:40:38;;;;;;;11.57;10.57;;;;;;;;;;10180860;28;20510;-72
2022/10/10 09:45:37;;;;;;;10.32;9.15;;;;;;;;;;10173685;28;20393;-72
2022/10/10 09:50:34;;;;;;;10.98;9.88;;;;;;;;;;10183503;28;20046;-71
2022/10/10 09:55:38;;;;;;;13.63;9.95;;;;;;;;;;10180504;28;20092;-71
2022/10/10 10:00:35;;;;;;;9.27;8.48;;;;;;;;;;10183986;28;20053;-71
2022/10/10 10:05:31;;;;;;;11.43;10.27;;;;;;;;;;10181417;28;20466;-71
2022/10/10 10:10:29;;;;;;;10.57;9.48;;;;;;;;;;10180876;28;20046;-72
2022/10/10 10:15:27;;;;;;;10.57;9.52;;;;;;;;;;10177369;28;20052;-71
2022/10/10 10:20:30;;;;;;;9.68;8.85;;;;;;;;;;10175704;28;20056;-71
2022/10/10 10:25:26;;;;;;;9.80;8.90;;;;;;;;;;10175150;28;20054;-69
2022/10/10 10:30:26;;;;;;;11.25;10.00;;;;;;;;;;10180310;28;20120;-71
2022/10/10 10:35:35;;;;;;;9.40;8.60;;;;;;;;;;10174162;28;20046;-71
2022/10/10 10:40:39;;;;;;;9.73;8.90;;;;;;;;;;10168848;28;20038;-69
2022/10/10 10:45:42;;;;;;;9.75;8.85;;;;;;;;;;10179185;28;20052;-69
2022/10/10 10:50:53;;;;;;;9.38;8.50;;;;;;;;;;10174043;28;20034;-70
2022/10/10 10:56:04;;;;;;;9.90;8.90;;;;;;;;;;10172345;28;20546;-70
2022/10/10 11:01:03;;;;;;;9.18;8.30;;;;;;;;;;10176321;28;20061;-70
2022/10/10 11:06:19;;;;;;;13.80;7.95;;;;;;;;;;10176830;28;20100;-71
2022/10/10 11:11:21;;;;;;;9.13;8.23;;;;;;;;;;10177090;28;20078;-70
2022/10/10 11:16:37;;;;;;;11.77;8.90;;;;;;;;;;10177871;28;20056;-70
2022/10/10 11:21:52;;;;;;;9.00;8.20;;;;;;;;;;10173025;28;20096;-70
2022/10/10 11:26:52;;;;;;;13.05;8.82;;;;;;;;;;10179273;28;20061;-70
2022/10/10 11:32:07;;;;;;;12.38;7.80;;;;;;;;;;10179503;28;20037;-70
2022/10/10 11:37:06;;;;;;;9.02;7.55;;;;;;;;;;10179273;28;20060;-70
2022/10/10 11:42:06;;;;;;;8.73;7.50;;;;;;;;;;10178197;28;20041;-70
2022/10/10 11:47:08;;;;;;;8.23;7.03;;;;;;;;;;10171248;28;20058;-70
2022/10/10 11:52:23;;;;;;;7.90;7.05;;;;;;;;;;10173970;28;20041;-70
2022/10/10 11:57:34;;;;;;;11.60;7.30;;;;;;;;;;10182861;28;20080;-70
2022/10/10 12:02:32;;;;;;;11.65;7.18;;;;;;;;;;10185404;28;20054;-70
2022/10/10 12:07:31;;;;;;;11.20;6.65;;;;;;;;;;10185516;28;20050;-70
2022/10/10 12:12:29;;;;;;;12.02;6.97;;;;;;;;;;10181470;28;20050;-70
2022/10/10 12:17:28;;;;;;;7.70;6.85;;;;;;;;;;10182715;28;20046;-70
2022/10/10 12:22:27;;;;;;;10.05;7.07;;;;;;;;;;10188630;28;20045;-70
2022/10/10 12:27:41;;;;;;;12.88;7.90;;;;;;;;;;10189311;28;20093;-70
2022/10/10 12:32:41;;;;;;;10.27;7.40;;;;;;;;;;10185908;28;20131;-70
2022/10/10 12:37:58;;;;;;;10.13;7.53;;;;;;;;;;10188617;28;20507;-71
2022/10/10 12:42:54;;;;;;;10.73;7.82;;;;;;;;;;10183866;28;20606;-71
2022/10/10 12:47:50;;;;;;;8.45;7.65;;;;;;;;;;10191956;28;20053;-71
2022/10/10 12:53:01;;;;;;;10.27;8.32;;;;;;;;;;10189018;28;20538;-71
2022/10/10 12:58:00;;;;;;;9.63;7.80;;;;;;;;;;10190836;28;20045;-71
2022/10/10 13:02:59;;;;;;;8.52;6.80;;;;;;;;;;10188639;28;20443;-71
2022/10/10 13:07:58;;;;;;;10.68;7.43;;;;;;;;;;10177266;28;20483;-71
2022/10/10 13:12:59;;;;;;;11.82;7.57;;;;;;;;;;10185393;28;20038;-71
2022/10/10 13:17:55;;;;;;;8.30;7.47;;;;;;;;;;10184093;28;20467;-71
2022/10/10 13:22:52;;;;;;;8.50;6.82;;;;;;;;;;10183373;28;20066;-70
2022/10/10 13:27:48;;;;;;;8.45;6.38;;;;;;;;;;10185267;28;20038;-71
2022/10/10 13:32:44;;;;;;;7.68;6.95;;;;;;;;;;10191102;28;20407;-71
2022/10/10 13:37:41;;;;;;;8.20;7.40;;;;;;;;;;10190578;28;20046;-70
2022/10/10 13:42:38;;;;;;;12.02;7.07;;;;;;;;;;10189791;28;20053;-71
2022/10/10 13:47:53;;;;;;;8.63;7.07;;;;;;;;;;10185208;28;20057;-71
2022/10/10 13:53:13;;;;;;;9.52;7.97;;;;;;;;;;10189252;28;20048;-71
2022/10/10 13:58:09;;;;;;;15.07;8.60;;;;;;;;;;10204584;28;20459;-70
2022/10/10 14:03:13;;;;;;;10.73;7.88;;;;;;;;;;10180798;28;20050;-71
2022/10/10 14:08:17;;;;;;;12.50;7.25;;;;;;;;;;10190253;28;20049;-70
2022/10/10 14:13:16;;;;;;;10.48;8.45;;;;;;;;;;10190963;28;20137;-71
2022/10/10 14:18:14;;;;;;;11.80;8.35;;;;;;;;;;10185518;28;20516;-71
2022/10/10 14:23:11;;;;;;;10.68;7.97;;;;;;;;;;10190963;28;20061;-70
2022/10/10 14:28:13;;;;;;;9.38;8.25;;;;;;;;;;10181521;28;20647;-71
2022/10/10 14:33:10;;;;;;;9.75;8.32;;;;;;;;;;10186251;28;20042;-71
2022/10/10 14:38:09;;;;;;;8.73;7.88;;;;;;;;;;10190169;28;20120;-71
2022/10/10 14:43:05;;;;;;;9.50;8.65;;;;;;;;;;10182500;28;20042;-71
2022/10/10 14:48:02;;;;;;;9.10;8.20;;;;;;;;;;10185029;28;20523;-70
2022/10/10 14:52:58;;;;;;;10.63;8.32;;;;;;;;;;10186918;28;20060;-70
2022/10/10 14:57:54;;;;;;;8.70;7.78;;;;;;;;;;10186965;28;20523;-70
2022/10/10 15:02:51;;;;;;;10.40;7.57;;;;;;;;;;10184533;28;20483;-71
2022/10/10 15:07:52;;;;;;;8.85;7.97;;;;;;;;;;10182222;28;20507;-71
2022/10/10 15:12:48;;;;;;;9.75;7.55;;;;;;;;;;10182895;28;20037;-70
2022/10/10 15:17:45;;;;;;;9.30;8.20;;;;;;;;;;10183711;28;20045;-70
2022/10/10 15:22:42;;;;;;;12.40;8.00;;;;;;;;;;10179912;28;20042;-70
2022/10/10 15:27:38;;;;;;;10.30;8.90;;;;;;;;;;10178456;28;20642;-71
2022/10/10 15:32:36;;;;;;;14.18;8.25;;;;;;;;;;10180079;28;20052;-71
2022/10/10 15:37:32;;;;;;;8.43;7.63;;;;;;;;;;10182366;28;20049;-70
2022/10/10 15:42:29;;;;;;;8.57;7.70;;;;;;;;;;10184297;28;20041;-70
2022/10/10 15:47:25;;;;;;;9.27;7.90;;;;;;;;;;10184651;28;20511;-71
2022/10/10 15:52:25;;;;;;;13.27;8.25;;;;;;;;;;10178665;28;20043;-70
2022/10/10 15:57:21;;;;;;;8.32;7.53;;;;;;;;;;10180187;28;20121;-70
2022/10/10 16:02:18;;;;;;;8.18;7.38;;;;;;;;;;10179272;28;20046;-71
2022/10/10 16:07:14;;;;;;;9.13;8.20;;;;;;;;;;10173145;28;20053;-71
2022/10/10 16:12:30;;;;;;;9.23;8.27;;;;;;;;;;10172902;28;20037;-71
2022/10/10 16:17:27;;;;;;;11.65;9.18;;;;;;;;;;10176328;28;20046;-70
2022/10/10 16:22:23;;;;;;;11.10;9.00;;;;;;;;;;10170551;28;20053;-71
2022/10/10 16:27:19;;;;;;;20.52;11.85;;;;;;;;;;10175408;28;20052;-70
2022/10/10 16:32:24;;;;;;;13.43;12.15;;;;;;;;;;10180410;28;20495;-71
2022/10/10 16:37:21;;;;;;;16.80;15.23;;;;;;;;;;10170090;28;20657;-70
2022/10/10 16:42:18;;;;;;;19.55;18.17;;;;;;;;;;10180885;28;20062;-70
2022/10/10 16:47:14;;;;;;;23.63;21.65;;;;;;;;;;10178992;28;20060;-70
2022/10/10 16:52:10;;;;;;;28.38;26.38;;;;;;;;;;10189448;28;20112;-70
2022/10/10 16:57:07;;;;;;;36.50;33.80;;;;;;;;;;10186532;28;20045;-70
2022/10/10 17:02:03;;;;;;;42.08;39.20;;;;;;;;;;10186985;28;20045;-69
2022/10/10 17:06:59;;;;;;;58.40;54.63;;;;;;;;;;10173155;28;20050;-69
2022/10/10 17:11:56;;;;;;;71.32;66.93;;;;;;;;;;10168557;28;20045;-69
2022/10/10 17:16:53;;;;;;;77.07;72.18;;;;;;;;;;10168054;28;20056;-70
2022/10/10 17:22:09;;;;;;;87.28;81.82;;;;;;;;;;10171891;28;20419;-69
2022/10/10 17:27:05;;;;;;;93.82;88.40;;;;;;;;;;10166339;28;20520;-69
2022/10/10 17:32:02;;;;;;;96.47;90.72;;;;;;;;;;10161773;28;20451;-70
2022/10/10 17:37:02;;;;;;;94.60;89.05;;;;;;;;;;10165348;28;20500;-69
2022/10/10 17:41:59;;;;;;;87.60;82.78;;;;;;;;;;10167181;28;20054;-69
2022/10/10 17:46:55;;;;;;;86.10;81.00;;;;;;;;;;10182816;28;20549;-70
2022/10/10 17:51:52;;;;;;;85.13;80.35;;;;;;;;;;10187320;28;20672;-70
2022/10/10 17:56:48;;;;;;;93.53;88.32;;;;;;;;;;10184346;28;20045;-69
2022/10/10 18:01:44;;;;;;;92.10;86.35;;;;;;;;;;10200572;28;20056;-69
2022/10/10 18:06:40;;;;;;;73.72;68.95;;;;;;;;;;10177886;28;20042;-70
2022/10/10 18:11:37;;;;;;;50.72;47.08;;;;;;;;;;10182443;28;20129;-70
2022/10/10 18:16:33;;;;;;;54.42;51.20;;;;;;;;;;10182015;28;20056;-70
2022/10/10 18:21:30;;;;;;;53.88;50.55;;;;;;;;;;10178174;28;20049;-70
2022/10/10 18:26:28;;;;;;;52.67;48.92;;;;;;;;;;10183830;28;20439;-70
2022/10/10 18:31:26;;;;;;;57.33;53.72;;;;;;;;;;10176457;28;20507;-70
2022/10/10 18:36:23;;;;;;;59.33;55.63;;;;;;;;;;10186714;28;20038;-70
2022/10/10 18:41:21;;;;;;;72.53;67.97;;;;;;;;;;10183792;28;20052;-70
2022/10/10 18:46:18;;;;;;;78.97;72.75;;;;;;;;;;10186569;28;20064;-70
2022/10/10 18:51:18;;;;;;;80.18;75.57;;;;;;;;;;10192053;28;20526;-71
2022/10/10 18:56:16;;;;;;;84.90;79.32;;;;;;;;;;10185659;28;20057;-70
2022/10/10 19:01:14;;;;;;;86.80;81.25;;;;;;;;;;10185022;28;20038;-70
2022/10/10 19:06:11;;;;;;;94.50;88.25;;;;;;;;;;10177343;28;20052;-70
2022/10/10 19:11:15;;;;;;;98.32;92.40;;;;;;;;;;10177343;28;20038;-70
2022/10/10 19:16:12;;;;;;;99.85;93.82;;;;;;;;;;10172969;28;20041;-71
2022/10/10 19:21:09;;;;;;;106.13;99.97;;;;;;;;;;10175316;28;20053;-70
2022/10/10 19:26:07;;;;;;;101.70;95.68;;;;;;;;;;10176153;28;20496;-70
2022/10/10 19:31:07;;;;;;;100.25;94.25;;;;;;;;;;10177680;28;20407;-69
2022/10/10 19:36:05;;;;;;;103.78;97.22;;;;;;;;;;10182027;28;20064;-69
2022/10/10 19:41:03;;;;;;;106.18;99.68;;;;;;;;;;10179872;28;20069;-70
2022/10/10 19:46:04;;;;;;;103.28;96.25;;;;;;;;;;10176778;28;20133;-70
2022/10/10 19:51:06;;;;;;;109.10;102.28;;;;;;;;;;10182324;28;20073;-70
2022/10/10 19:56:03;;;;;;;105.22;98.43;;;;;;;;;;10172660;28;20056;-69
2022/10/10 20:01:04;;;;;;;100.68;94.22;;;;;;;;;;10184041;28;20058;-70
2022/10/10 20:06:00;;;;;;;104.10;97.22;;;;;;;;;;10180505;28;20049;-68
2022/10/10 20:10:58;;;;;;;103.13;96.57;;;;;;;;;;10170787;28;20046;-67
2022/10/10 20:15:57;;;;;;;101.60;95.53;;;;;;;;;;10184846;28;20041;-67
2022/10/10 20:20:54;;;;;;;105.97;98.70;;;;;;;;;;10179511;28;20081;-67
2022/10/10 20:25:51;;;;;;;111.00;103.90;;;;;;;;;;10180118;28;20442;-71
2022/10/10 20:30:48;;;;;;;109.63;102.07;;;;;;;;;;10186095;28;20042;-68
2022/10/10 20:35:46;;;;;;;110.05;103.05;;;;;;;;;;10185900;28;20049;-68
2022/10/10 20:40:43;;;;;;;111.93;105.05;;;;;;;;;;10185728;28;21336;-68
2022/10/10 20:45:39;;;;;;;113.50;106.65;;;;;;;;;;10184083;28;20053;-68
2022/10/10 20:50:36;;;;;;;119.18;111.78;;;;;;;;;;10193132;28;20048;-68
2022/10/10 20:55:32;;;;;;;119.30;112.10;;;;;;;;;;10191122;28;20042;-69
2022/10/10 21:00:29;;;;;;;119.07;112.03;;;;;;;;;;10190412;28;20061;-70
2022/10/10 21:05:25;;;;;;;120.70;113.10;;;;;;;;;;10190509;28;20077;-68
2022/10/10 21:10:22;;;;;;;121.15;113.13;;;;;;;;;;10185021;28;20057;-68
2022/10/10 21:15:18;;;;;;;116.70;109.72;;;;;;;;;;10190671;28;20046;-68
2022/10/10 21:20:14;;;;;;;112.00;105.32;;;;;;;;;;10192788;28;20038;-69
2022/10/10 21:25:12;;;;;;;120.30;112.50;;;;;;;;;;10191699;28;20072;-70
2022/10/10 21:30:08;;;;;;;118.47;111.45;;;;;;;;;;10192735;28;20054;-70
2022/10/10 21:35:04;;;;;;;120.28;113.10;;;;;;;;;;10189515;28;20042;-70
2022/10/10 21:40:01;;;;;;;117.88;110.75;;;;;;;;;;10192754;28;20046;-71
2022/10/10 21:44:57;;;;;;;119.85;112.57;;;;;;;;;;10193836;28;20078;-71
2022/10/10 21:49:53;;;;;;;116.63;109.30;;;;;;;;;;10191065;28;20420;-71
2022/10/10 21:54:51;;;;;;;125.43;118.05;;;;;;;;;;10181730;28;20492;-71
2022/10/10 21:59:47;;;;;;;124.35;117.07;;;;;;;;;;10186127;28;20396;-70
2022/10/10 22:04:43;;;;;;;121.57;114.18;;;;;;;;;;10188697;28;20048;-70
2022/10/10 22:09:39;;;;;;;124.97;117.50;;;;;;;;;;10185864;28;20042;-70
2022/10/10 22:14:35;;;;;;;125.20;117.15;;;;;;;;;;10191220;28;20511;-70
2022/10/10 22:19:32;;;;;;;124.72;117.32;;;;;;;;;;10189721;28;20058;-71
2022/10/10 22:24:28;;;;;;;115.53;108.40;;;;;;;;;;10187304;28;20056;-71
2022/10/10 22:29:24;;;;;;;112.78;106.15;;;;;;;;;;10186305;28;20056;-70
2022/10/10 22:34:20;;;;;;;111.68;104.88;;;;;;;;;;10184604;28;20056;-69
2022/10/10 22:39:17;;;;;;;110.97;103.70;;;;;;;;;;10189577;28;20499;-70
2022/10/10 22:44:14;;;;;;;106.70;100.60;;;;;;;;;;10191627;28;20117;-69
2022/10/10 22:49:11;;;;;;;116.00;108.88;;;;;;;;;;10184838;28;20739;-70
2022/10/10 22:54:07;;;;;;;119.40;112.20;;;;;;;;;;10180805;28;20046;-70
2022/10/10 22:59:04;;;;;;;118.68;112.07;;;;;;;;;;10186234;28;20060;-70
2022/10/10 23:04:07;;;;;;;115.60;108.57;;;;;;;;;;10185630;28;20045;-70
2022/10/10 23:09:04;;;;;;;116.53;109.00;;;;;;;;;;10174111;28;20050;-70
2022/10/10 23:14:00;;;;;;;115.95;109.35;;;;;;;;;;10188165;28;20033;-70
2022/10/10 23:18:56;;;;;;;117.53;110.53;;;;;;;;;;10179907;28;20045;-69
2022/10/10 23:23:53;;;;;;;118.88;111.78;;;;;;;;;;10178795;28;20054;-70
2022/10/10 23:28:49;;;;;;;123.95;116.57;;;;;;;;;;10182634;28;20069;-70
2022/10/10 23:33:46;;;;;;;120.63;113.35;;;;;;;;;;10168474;28;20046;-70
2022/10/10 23:38:42;;;;;;;123.50;116.22;;;;;;;;;;10173683;28;20496;-70
2022/10/10 23:43:38;;;;;;;115.20;109.20;;;;;;;;;;10168190;28;20851;-69
2022/10/10 23:48:34;;;;;;;113.25;106.72;;;;;;;;;;10179761;28;20508;-70
2022/10/10 23:53:31;;;;;;;105.03;99.13;;;;;;;;;;10187590;28;20034;-70
2022/10/10 23:58:27;;;;;;;104.60;98.28;;;;;;;;;;10183507;28;20034;-70
